sensor_id;sensor_type;location;lat;lon;timestamp;pressure;altitude;pressure_sealevel;temperature;humidity
69980;BME280;57318;56.232;43.944;2023-04-28T00:01:10;98907.88;;;13.75;51.55
69980;BME280;57318;56.232;43.944;2023-04-28T00:03:36;98904.25;;;13.76;51.57
69980;BME280;57318;56.232;43.944;2023-04-28T00:06:02;98905.22;;;13.75;51.62
69980;BME280;57318;56.232;43.944;2023-04-28T00:08:28;98908.19;;;13.71;51.83
69980;BME280;57318;56.232;43.944;2023-04-28T00:10:54;98911.84;;;13.70;51.97
69980;BME280;57318;56.232;43.944;2023-04-28T00:13:20;98911.03;;;13.70;51.89
69980;BME280;57318;56.232;43.944;2023-04-28T00:15:45;98909.34;;;13.69;52.05
69980;BME280;57318;56.232;43.944;2023-04-28T00:18:11;98899.84;;;13.66;51.95
69980;BME280;57318;56.232;43.944;2023-04-28T00:20:36;98912.16;;;13.67;51.87
69980;BME280;57318;56.232;43.944;2023-04-28T00:23:02;98912.47;;;13.64;52.06
69980;BME280;57318;56.232;43.944;2023-04-28T00:25:28;98906.31;;;13.64;52.17
69980;BME280;57318;56.232;43.944;2023-04-28T00:27:54;98909.13;;;13.62;52.29
69980;BME280;57318;56.232;43.944;2023-04-28T00:30:19;98915.75;;;13.58;52.27
69980;BME280;57318;56.232;43.944;2023-04-28T00:32:45;98909.75;;;13.56;52.52
69980;BME280;57318;56.232;43.944;2023-04-28T00:35:11;98905.03;;;13.50;52.47
69980;BME280;57318;56.232;43.944;2023-04-28T00:37:37;98908.72;;;13.49;52.54
69980;BME280;57318;56.232;43.944;2023-04-28T00:40:04;98905.50;;;13.45;52.83
69980;BME280;57318;56.232;43.944;2023-04-28T00:42:31;98907.63;;;13.42;53.07
69980;BME280;57318;56.232;43.944;2023-04-28T00:44:57;98911.59;;;13.38;53.04
69980;BME280;57318;56.232;43.944;2023-04-28T00:47:22;98908.69;;;13.31;53.31
69980;BME280;57318;56.232;43.944;2023-04-28T00:49:48;98907.47;;;13.25;53.45
69980;BME280;57318;56.232;43.944;2023-04-28T00:52:14;98902.75;;;13.19;53.82
69980;BME280;57318;56.232;43.944;2023-04-28T00:54:40;98916.00;;;13.11;53.94
69980;BME280;57318;56.232;43.944;2023-04-28T00:57:09;98911.25;;;13.05;54.23
69980;BME280;57318;56.232;43.944;2023-04-28T00:59:35;98905.84;;;12.96;54.79
69980;BME280;57318;56.232;43.944;2023-04-28T01:02:01;98900.75;;;12.85;54.97
69980;BME280;57318;56.232;43.944;2023-04-28T01:04:28;98907.34;;;12.81;54.97
69980;BME280;57318;56.232;43.944;2023-04-28T01:06:54;98908.66;;;12.77;54.84
69980;BME280;57318;56.232;43.944;2023-04-28T01:09:21;98907.28;;;12.73;55.12
69980;BME280;57318;56.232;43.944;2023-04-28T01:11:47;98907.56;;;12.70;55.05
69980;BME280;57318;56.232;43.944;2023-04-28T01:14:13;98901.56;;;12.68;55.15
69980;BME280;57318;56.232;43.944;2023-04-28T01:16:39;98914.22;;;12.66;55.49
69980;BME280;57318;56.232;43.944;2023-04-28T01:19:06;98905.81;;;12.60;55.81
69980;BME280;57318;56.232;43.944;2023-04-28T01:21:32;98915.94;;;12.57;55.86
69980;BME280;57318;56.232;43.944;2023-04-28T01:23:59;98917.81;;;12.47;56.38
69980;BME280;57318;56.232;43.944;2023-04-28T01:26:24;98924.56;;;12.41;56.43
69980;BME280;57318;56.232;43.944;2023-04-28T01:28:50;98916.19;;;12.36;56.49
69980;BME280;57318;56.232;43.944;2023-04-28T01:31:16;98922.63;;;12.33;56.37
69980;BME280;57318;56.232;43.944;2023-04-28T01:33:42;98921.81;;;12.33;56.52
69980;BME280;57318;56.232;43.944;2023-04-28T01:36:08;98915.03;;;12.38;55.80
69980;BME280;57318;56.232;43.944;2023-04-28T01:38:33;98918.50;;;12.49;55.36
69980;BME280;57318;56.232;43.944;2023-04-28T01:40:59;98920.56;;;12.55;55.41
69980;BME280;57318;56.232;43.944;2023-04-28T01:43:27;98921.13;;;12.58;54.96
69980;BME280;57318;56.232;43.944;2023-04-28T01:45:53;98919.13;;;12.60;55.20
69980;BME280;57318;56.232;43.944;2023-04-28T01:48:18;98926.44;;;12.58;55.50
69980;BME280;57318;56.232;43.944;2023-04-28T01:50:44;98927.84;;;12.62;55.32
69980;BME280;57318;56.232;43.944;2023-04-28T01:53:10;98927.53;;;12.66;54.89
69980;BME280;57318;56.232;43.944;2023-04-28T01:55:37;98938.19;;;12.66;55.00
69980;BME280;57318;56.232;43.944;2023-04-28T01:58:03;98934.38;;;12.68;54.97
69980;BME280;57318;56.232;43.944;2023-04-28T02:00:29;98933.56;;;12.68;55.01
69980;BME280;57318;56.232;43.944;2023-04-28T02:02:54;98936.75;;;12.71;54.49
69980;BME280;57318;56.232;43.944;2023-04-28T02:05:20;98933.63;;;12.76;54.16
69980;BME280;57318;56.232;43.944;2023-04-28T02:07:46;98938.06;;;12.85;54.35
69980;BME280;57318;56.232;43.944;2023-04-28T02:10:12;98938.59;;;12.89;53.99
69980;BME280;57318;56.232;43.944;2023-04-28T02:12:38;98937.84;;;12.96;53.51
69980;BME280;57318;56.232;43.944;2023-04-28T02:15:04;98944.28;;;13.04;53.17
69980;BME280;57318;56.232;43.944;2023-04-28T02:17:31;98945.19;;;13.12;53.16
69980;BME280;57318;56.232;43.944;2023-04-28T02:19:57;98947.09;;;13.20;52.88
69980;BME280;57318;56.232;43.944;2023-04-28T02:22:23;98948.19;;;13.27;52.85
69980;BME280;57318;56.232;43.944;2023-04-28T02:24:49;98949.72;;;13.30;52.52
69980;BME280;57318;56.232;43.944;2023-04-28T02:27:15;98950.53;;;13.30;52.70
69980;BME280;57318;56.232;43.944;2023-04-28T02:29:41;98954.03;;;13.31;52.61
69980;BME280;57318;56.232;43.944;2023-04-28T02:32:07;98955.88;;;13.30;52.83
69980;BME280;57318;56.232;43.944;2023-04-28T02:34:33;98956.03;;;13.29;52.97
69980;BME280;57318;56.232;43.944;2023-04-28T02:36:59;98948.34;;;13.26;53.28
69980;BME280;57318;56.232;43.944;2023-04-28T02:39:24;98942.31;;;13.24;53.18
69980;BME280;57318;56.232;43.944;2023-04-28T02:41:52;98950.16;;;13.25;52.91
69980;BME280;57318;56.232;43.944;2023-04-28T02:44:19;98951.53;;;13.29;53.17
69980;BME280;57318;56.232;43.944;2023-04-28T02:46:45;98953.22;;;13.30;53.01
69980;BME280;57318;56.232;43.944;2023-04-28T02:49:10;98955.88;;;13.30;52.66
69980;BME280;57318;56.232;43.944;2023-04-28T02:51:36;98946.75;;;13.33;52.43
69980;BME280;57318;56.232;43.944;2023-04-28T02:54:02;98955.97;;;13.39;52.35
69980;BME280;57318;56.232;43.944;2023-04-28T02:56:28;98954.25;;;13.47;51.71
69980;BME280;57318;56.232;43.944;2023-04-28T02:58:54;98954.47;;;13.54;51.32
69980;BME280;57318;56.232;43.944;2023-04-28T03:01:20;98960.84;;;13.61;51.50
69980;BME280;57318;56.232;43.944;2023-04-28T03:03:46;98965.56;;;13.67;51.33
69980;BME280;57318;56.232;43.944;2023-04-28T03:06:11;98965.09;;;13.72;50.63
69980;BME280;57318;56.232;43.944;2023-04-28T03:08:37;98965.19;;;13.80;50.77
69980;BME280;57318;56.232;43.944;2023-04-28T03:11:03;98968.91;;;13.87;50.73
69980;BME280;57318;56.232;43.944;2023-04-28T03:13:29;98970.13;;;13.93;50.13
69980;BME280;57318;56.232;43.944;2023-04-28T03:15:55;98966.13;;;13.97;50.05
69980;BME280;57318;56.232;43.944;2023-04-28T03:18:21;98972.53;;;14.04;49.82
69980;BME280;57318;56.232;43.944;2023-04-28T03:20:47;98972.06;;;14.09;49.35
69980;BME280;57318;56.232;43.944;2023-04-28T03:23:13;98969.44;;;14.17;49.38
69980;BME280;57318;56.232;43.944;2023-04-28T03:25:38;98969.47;;;14.25;49.06
69980;BME280;57318;56.232;43.944;2023-04-28T03:28:04;98970.53;;;14.33;49.00
69980;BME280;57318;56.232;43.944;2023-04-28T03:30:30;98979.75;;;14.38;48.97
69980;BME280;57318;56.232;43.944;2023-04-28T03:32:56;98969.56;;;14.42;48.86
69980;BME280;57318;56.232;43.944;2023-04-28T03:35:22;98975.13;;;14.49;48.85
69980;BME280;57318;56.232;43.944;2023-04-28T03:37:47;98983.50;;;14.54;48.17
69980;BME280;57318;56.232;43.944;2023-04-28T03:40:14;98985.84;;;14.57;48.38
69980;BME280;57318;56.232;43.944;2023-04-28T03:42:40;98986.09;;;14.64;48.14
69980;BME280;57318;56.232;43.944;2023-04-28T03:45:06;98991.13;;;14.67;47.65
69980;BME280;57318;56.232;43.944;2023-04-28T03:47:33;98982.75;;;14.70;47.45
69980;BME280;57318;56.232;43.944;2023-04-28T03:49:58;98988.47;;;14.75;47.66
69980;BME280;57318;56.232;43.944;2023-04-28T03:52:25;98987.31;;;14.77;47.06
69980;BME280;57318;56.232;43.944;2023-04-28T03:54:51;98991.66;;;14.78;47.15
69980;BME280;57318;56.232;43.944;2023-04-28T03:57:17;98986.00;;;14.82;46.84
69980;BME280;57318;56.232;43.944;2023-04-28T03:59:43;98990.38;;;14.91;47.08
69980;BME280;57318;56.232;43.944;2023-04-28T04:02:08;98992.06;;;14.92;46.26
69980;BME280;57318;56.232;43.944;2023-04-28T04:04:34;98985.72;;;15.01;45.75
69980;BME280;57318;56.232;43.944;2023-04-28T04:07:00;98989.44;;;15.08;45.06
69980;BME280;57318;56.232;43.944;2023-04-28T04:09:26;98984.94;;;15.17;45.33
69980;BME280;57318;56.232;43.944;2023-04-28T04:11:52;98986.13;;;15.23;45.23
69980;BME280;57318;56.232;43.944;2023-04-28T04:14:18;98986.44;;;15.28;44.78
69980;BME280;57318;56.232;43.944;2023-04-28T04:16:46;98990.31;;;15.33;44.94
69980;BME280;57318;56.232;43.944;2023-04-28T04:19:12;98987.16;;;15.38;44.61
69980;BME280;57318;56.232;43.944;2023-04-28T04:21:38;98999.56;;;15.47;44.96
69980;BME280;57318;56.232;43.944;2023-04-28T04:24:05;98998.22;;;15.51;44.84
69980;BME280;57318;56.232;43.944;2023-04-28T04:26:31;98998.41;;;15.58;44.61
69980;BME280;57318;56.232;43.944;2023-04-28T04:28:57;98992.03;;;15.67;44.92
69980;BME280;57318;56.232;43.944;2023-04-28T04:31:23;98998.88;;;15.70;44.71
69980;BME280;57318;56.232;43.944;2023-04-28T04:33:50;99000.41;;;15.73;43.99
69980;BME280;57318;56.232;43.944;2023-04-28T04:36:16;99002.28;;;15.80;44.30
69980;BME280;57318;56.232;43.944;2023-04-28T04:38:41;99005.94;;;15.87;44.30
69980;BME280;57318;56.232;43.944;2023-04-28T04:41:07;99001.28;;;15.90;44.61
69980;BME280;57318;56.232;43.944;2023-04-28T04:43:33;99003.47;;;15.94;43.80
69980;BME280;57318;56.232;43.944;2023-04-28T04:45:59;99009.66;;;15.95;44.19
69980;BME280;57318;56.232;43.944;2023-04-28T04:48:24;99008.63;;;16.04;44.40
69980;BME280;57318;56.232;43.944;2023-04-28T04:50:50;99009.97;;;16.08;44.65
69980;BME280;57318;56.232;43.944;2023-04-28T04:53:16;99006.28;;;16.09;44.17
69980;BME280;57318;56.232;43.944;2023-04-28T04:55:42;99014.50;;;16.24;44.23
69980;BME280;57318;56.232;43.944;2023-04-28T04:58:08;99016.84;;;16.27;44.49
69980;BME280;57318;56.232;43.944;2023-04-28T05:00:34;99018.66;;;16.35;44.37
69980;BME280;57318;56.232;43.944;2023-04-28T05:03:02;99018.97;;;16.48;44.31
69980;BME280;57318;56.232;43.944;2023-04-28T05:05:28;99016.75;;;16.60;44.22
69980;BME280;57318;56.232;43.944;2023-04-28T05:07:54;99020.53;;;16.74;44.27
69980;BME280;57318;56.232;43.944;2023-04-28T05:10:19;99018.22;;;16.79;44.20
69980;BME280;57318;56.232;43.944;2023-04-28T05:12:45;99018.84;;;16.81;44.11
69980;BME280;57318;56.232;43.944;2023-04-28T05:15:11;99023.88;;;16.84;44.44
69980;BME280;57318;56.232;43.944;2023-04-28T05:17:37;99024.34;;;16.96;44.40
69980;BME280;57318;56.232;43.944;2023-04-28T05:20:04;99023.47;;;17.12;44.12
69980;BME280;57318;56.232;43.944;2023-04-28T05:22:30;99029.75;;;17.27;43.96
69980;BME280;57318;56.232;43.944;2023-04-28T05:24:56;99020.78;;;17.43;43.72
69980;BME280;57318;56.232;43.944;2023-04-28T05:27:21;99023.53;;;17.58;43.56
69980;BME280;57318;56.232;43.944;2023-04-28T05:29:47;99024.44;;;17.74;43.38
69980;BME280;57318;56.232;43.944;2023-04-28T05:32:13;99021.38;;;17.77;43.18
69980;BME280;57318;56.232;43.944;2023-04-28T05:34:38;99026.34;;;17.88;43.31
69980;BME280;57318;56.232;43.944;2023-04-28T05:37:04;99026.38;;;18.03;43.24
69980;BME280;57318;56.232;43.944;2023-04-28T05:39:30;99025.25;;;18.20;42.70
69980;BME280;57318;56.232;43.944;2023-04-28T05:41:56;99017.38;;;18.34;42.63
69980;BME280;57318;56.232;43.944;2023-04-28T05:44:23;99010.91;;;18.43;42.27
69980;BME280;57318;56.232;43.944;2023-04-28T05:46:49;99025.94;;;18.52;42.14
69980;BME280;57318;56.232;43.944;2023-04-28T05:49:15;99028.53;;;18.61;41.59
69980;BME280;57318;56.232;43.944;2023-04-28T05:51:41;99026.59;;;18.69;41.78
69980;BME280;57318;56.232;43.944;2023-04-28T05:54:06;99025.13;;;18.82;41.41
69980;BME280;57318;56.232;43.944;2023-04-28T05:56:32;99022.25;;;18.98;41.10
69980;BME280;57318;56.232;43.944;2023-04-28T05:58:58;99019.06;;;19.09;40.69
69980;BME280;57318;56.232;43.944;2023-04-28T06:01:31;99022.94;;;19.22;40.37
69980;BME280;57318;56.232;43.944;2023-04-28T06:03:57;99025.63;;;19.37;40.23
69980;BME280;57318;56.232;43.944;2023-04-28T06:06:24;99020.88;;;19.39;39.77
69980;BME280;57318;56.232;43.944;2023-04-28T06:08:49;99021.25;;;19.36;39.42
69980;BME280;57318;56.232;43.944;2023-04-28T06:11:15;99015.53;;;19.45;39.30
69980;BME280;57318;56.232;43.944;2023-04-28T06:13:43;99020.03;;;19.60;39.47
69980;BME280;57318;56.232;43.944;2023-04-28T06:16:09;99020.00;;;19.75;39.64
69980;BME280;57318;56.232;43.944;2023-04-28T06:18:35;99026.00;;;19.92;39.64
69980;BME280;57318;56.232;43.944;2023-04-28T06:21:00;99027.13;;;20.04;39.70
69980;BME280;57318;56.232;43.944;2023-04-28T06:23:26;99027.91;;;20.26;39.53
69980;BME280;57318;56.232;43.944;2023-04-28T06:25:52;99027.19;;;21.02;38.32
69980;BME280;57318;56.232;43.944;2023-04-28T06:28:18;99034.75;;;22.49;35.79
69980;BME280;57318;56.232;43.944;2023-04-28T06:30:43;99037.44;;;24.30;31.52
69980;BME280;57318;56.232;43.944;2023-04-28T06:33:09;99045.41;;;26.34;29.19
69980;BME280;57318;56.232;43.944;2023-04-28T06:35:35;99048.28;;;28.64;26.56
69980;BME280;57318;56.232;43.944;2023-04-28T06:38:03;99048.34;;;30.77;23.83
69980;BME280;57318;56.232;43.944;2023-04-28T06:40:29;99050.47;;;32.43;21.62
69980;BME280;57318;56.232;43.944;2023-04-28T06:42:54;99047.75;;;33.89;19.64
69980;BME280;57318;56.232;43.944;2023-04-28T06:45:20;99058.25;;;34.85;17.94
69980;BME280;57318;56.232;43.944;2023-04-28T06:47:46;99053.44;;;35.20;16.44
69980;BME280;57318;56.232;43.944;2023-04-28T06:50:11;99055.28;;;35.49;16.70
69980;BME280;57318;56.232;43.944;2023-04-28T06:52:37;99060.72;;;36.77;15.90
69980;BME280;57318;56.232;43.944;2023-04-28T06:55:06;99058.94;;;38.01;15.05
69980;BME280;57318;56.232;43.944;2023-04-28T06:57:34;99064.91;;;38.93;14.04
69980;BME280;57318;56.232;43.944;2023-04-28T07:00:00;99067.63;;;39.25;13.91
69980;BME280;57318;56.232;43.944;2023-04-28T07:02:26;99064.28;;;39.54;13.84
69980;BME280;57318;56.232;43.944;2023-04-28T07:04:52;99066.41;;;39.83;13.39
69980;BME280;57318;56.232;43.944;2023-04-28T07:07:17;99063.31;;;39.76;12.98
69980;BME280;57318;56.232;43.944;2023-04-28T07:09:43;99067.91;;;40.42;12.21
69980;BME280;57318;56.232;43.944;2023-04-28T07:12:09;99075.13;;;41.20;11.73
69980;BME280;57318;56.232;43.944;2023-04-28T07:14:34;99071.97;;;40.45;11.99
69980;BME280;57318;56.232;43.944;2023-04-28T07:17:00;99066.88;;;40.38;11.87
69980;BME280;57318;56.232;43.944;2023-04-28T07:19:26;99063.81;;;39.78;12.43
69980;BME280;57318;56.232;43.944;2023-04-28T07:21:52;99065.69;;;39.34;12.80
69980;BME280;57318;56.232;43.944;2023-04-28T07:24:17;99064.28;;;39.54;12.74
69980;BME280;57318;56.232;43.944;2023-04-28T07:26:43;99061.72;;;40.01;11.95
69980;BME280;57318;56.232;43.944;2023-04-28T07:29:09;99066.59;;;39.87;12.06
69980;BME280;57318;56.232;43.944;2023-04-28T07:31:37;99054.16;;;39.84;12.25
69980;BME280;57318;56.232;43.944;2023-04-28T07:34:03;99050.41;;;40.07;11.98
69980;BME280;57318;56.232;43.944;2023-04-28T07:36:29;99054.97;;;40.11;11.84
69980;BME280;57318;56.232;43.944;2023-04-28T07:38:56;99051.69;;;40.18;11.92
69980;BME280;57318;56.232;43.944;2023-04-28T07:41:21;99049.25;;;39.81;11.90
69980;BME280;57318;56.232;43.944;2023-04-28T07:43:48;99051.38;;;39.84;11.79
69980;BME280;57318;56.232;43.944;2023-04-28T07:46:14;99044.47;;;40.26;11.57
69980;BME280;57318;56.232;43.944;2023-04-28T07:48:40;99050.66;;;40.40;11.84
69980;BME280;57318;56.232;43.944;2023-04-28T07:51:05;99051.28;;;40.54;11.44
69980;BME280;57318;56.232;43.944;2023-04-28T07:53:32;99042.97;;;41.23;10.97
69980;BME280;57318;56.232;43.944;2023-04-28T07:55:58;99040.84;;;41.71;11.19
69980;BME280;57318;56.232;43.944;2023-04-28T07:58:23;99037.91;;;40.21;12.11
69980;BME280;57318;56.232;43.944;2023-04-28T08:00:49;99044.00;;;38.33;12.94
69980;BME280;57318;56.232;43.944;2023-04-28T08:03:15;99022.72;;;35.65;14.79
69980;BME280;57318;56.232;43.944;2023-04-28T08:05:41;99024.72;;;33.74;16.35
69980;BME280;57318;56.232;43.944;2023-04-28T08:08:07;99009.25;;;31.96;18.22
69980;BME280;57318;56.232;43.944;2023-04-28T08:10:33;99027.88;;;30.47;19.64
69980;BME280;57318;56.232;43.944;2023-04-28T08:12:59;99006.72;;;28.45;21.66
69980;BME280;57318;56.232;43.944;2023-04-28T08:15:26;99010.13;;;28.01;22.79
69980;BME280;57318;56.232;43.944;2023-04-28T08:17:52;99015.13;;;28.77;22.15
69980;BME280;57318;56.232;43.944;2023-04-28T08:20:18;99020.94;;;29.03;21.91
69980;BME280;57318;56.232;43.944;2023-04-28T08:22:46;99019.38;;;30.11;20.71
69980;BME280;57318;56.232;43.944;2023-04-28T08:25:12;99009.72;;;32.60;18.16
69980;BME280;57318;56.232;43.944;2023-04-28T08:27:37;99020.63;;;33.61;17.17
69980;BME280;57318;56.232;43.944;2023-04-28T08:30:08;99016.59;;;32.78;16.77
69980;BME280;57318;56.232;43.944;2023-04-28T08:32:34;99009.91;;;31.25;18.22
69980;BME280;57318;56.232;43.944;2023-04-28T08:35:00;99007.00;;;30.09;19.40
69980;BME280;57318;56.232;43.944;2023-04-28T08:37:26;99004.47;;;29.20;20.14
69980;BME280;57318;56.232;43.944;2023-04-28T08:39:52;98999.50;;;28.56;21.16
69980;BME280;57318;56.232;43.944;2023-04-28T08:42:32;98993.41;;;27.98;21.24
69980;BME280;57318;56.232;43.944;2023-04-28T08:44:58;98993.50;;;27.57;22.02
69980;BME280;57318;56.232;43.944;2023-04-28T08:47:34;98991.25;;;27.25;22.19
69980;BME280;57318;56.232;43.944;2023-04-28T08:50:07;98993.91;;;28.12;21.53
69980;BME280;57318;56.232;43.944;2023-04-28T08:52:34;98997.44;;;28.63;21.22
69980;BME280;57318;56.232;43.944;2023-04-28T08:55:05;98999.31;;;29.24;20.37
69980;BME280;57318;56.232;43.944;2023-04-28T08:57:36;99000.28;;;29.62;20.23
69980;BME280;57318;56.232;43.944;2023-04-28T09:00:04;98998.44;;;29.73;19.92
69980;BME280;57318;56.232;43.944;2023-04-28T09:02:30;98994.47;;;29.31;20.39
69980;BME280;57318;56.232;43.944;2023-04-28T09:04:57;98991.81;;;28.92;20.41
69980;BME280;57318;56.232;43.944;2023-04-28T09:07:22;98992.31;;;28.89;20.21
69980;BME280;57318;56.232;43.944;2023-04-28T09:09:48;98985.78;;;27.83;21.29
69980;BME280;57318;56.232;43.944;2023-04-28T09:12:14;98984.13;;;27.36;22.11
69980;BME280;57318;56.232;43.944;2023-04-28T09:14:40;98981.53;;;27.29;22.21
69980;BME280;57318;56.232;43.944;2023-04-28T09:17:10;98987.25;;;27.73;22.13
69980;BME280;57318;56.232;43.944;2023-04-28T09:19:40;98981.81;;;27.90;21.46
69980;BME280;57318;56.232;43.944;2023-04-28T09:22:08;98983.56;;;27.80;21.34
69980;BME280;57318;56.232;43.944;2023-04-28T09:24:36;98987.78;;;27.42;21.30
69980;BME280;57318;56.232;43.944;2023-04-28T09:27:09;98991.50;;;26.59;22.16
69980;BME280;57318;56.232;43.944;2023-04-28T09:29:37;98991.50;;;26.12;22.44
69980;BME280;57318;56.232;43.944;2023-04-28T09:32:20;98984.63;;;25.55;23.06
69980;BME280;57318;56.232;43.944;2023-04-28T09:34:48;98991.06;;;24.75;24.13
69980;BME280;57318;56.232;43.944;2023-04-28T09:37:24;98980.94;;;24.20;24.87
69980;BME280;57318;56.232;43.944;2023-04-28T09:39:53;98979.81;;;23.77;25.51
69980;BME280;57318;56.232;43.944;2023-04-28T09:42:31;98980.72;;;23.33;26.44
69980;BME280;57318;56.232;43.944;2023-04-28T09:44:58;98985.84;;;23.09;26.83
69980;BME280;57318;56.232;43.944;2023-04-28T09:47:24;98988.84;;;22.87;27.76
69980;BME280;57318;56.232;43.944;2023-04-28T09:49:54;98993.69;;;22.72;29.03
69980;BME280;57318;56.232;43.944;2023-04-28T09:52:23;98989.78;;;22.55;29.41
69980;BME280;57318;56.232;43.944;2023-04-28T09:54:50;98998.31;;;22.38;30.00
69980;BME280;57318;56.232;43.944;2023-04-28T09:57:17;99000.41;;;22.29;30.82
69980;BME280;57318;56.232;43.944;2023-04-28T09:59:49;99002.09;;;22.10;30.10
69980;BME280;57318;56.232;43.944;2023-04-28T10:02:16;98990.00;;;21.99;30.20
69980;BME280;57318;56.232;43.944;2023-04-28T10:04:45;98996.66;;;22.04;30.47
69980;BME280;57318;56.232;43.944;2023-04-28T10:07:13;99002.25;;;22.02;30.40
69980;BME280;57318;56.232;43.944;2023-04-28T10:09:39;99011.22;;;21.76;30.84
69980;BME280;57318;56.232;43.944;2023-04-28T10:12:21;99016.09;;;21.39;32.36
69980;BME280;57318;56.232;43.944;2023-04-28T10:14:49;99034.91;;;21.12;33.13
69980;BME280;57318;56.232;43.944;2023-04-28T10:17:20;99041.47;;;20.89;34.50
69980;BME280;57318;56.232;43.944;2023-04-28T10:19:49;99031.41;;;20.48;35.51
69980;BME280;57318;56.232;43.944;2023-04-28T10:22:47;99047.22;;;20.23;36.56
69980;BME280;57318;56.232;43.944;2023-04-28T10:25:25;99033.09;;;19.99;37.40
69980;BME280;57318;56.232;43.944;2023-04-28T10:27:51;99035.44;;;19.81;37.97
69980;BME280;57318;56.232;43.944;2023-04-28T10:30:20;99047.53;;;19.70;38.48
69980;BME280;57318;56.232;43.944;2023-04-28T10:32:46;99049.38;;;19.70;38.77
69980;BME280;57318;56.232;43.944;2023-04-28T10:38:12;99048.28;;;19.64;38.75
69980;BME280;57318;56.232;43.944;2023-04-28T10:40:43;99053.94;;;19.69;38.35
69980;BME280;57318;56.232;43.944;2023-04-28T10:43:11;99059.69;;;19.81;38.25
69980;BME280;57318;56.232;43.944;2023-04-28T10:56:14;99070.25;;;20.76;37.24
69980;BME280;57318;56.232;43.944;2023-04-28T10:58:42;99068.91;;;21.00;37.04
69980;BME280;57318;56.232;43.944;2023-04-28T11:06:41;99066.84;;;21.43;35.12
69980;BME280;57318;56.232;43.944;2023-04-28T11:16:50;99051.81;;;22.63;32.70
69980;BME280;57318;56.232;43.944;2023-04-28T11:19:20;99062.41;;;22.84;32.65
69980;BME280;57318;56.232;43.944;2023-04-28T11:21:47;99054.84;;;23.06;33.05
69980;BME280;57318;56.232;43.944;2023-04-28T11:24:14;99058.75;;;23.24;32.66
69980;BME280;57318;56.232;43.944;2023-04-28T11:26:40;99056.31;;;23.16;32.57
69980;BME280;57318;56.232;43.944;2023-04-28T11:29:07;99041.47;;;23.25;32.15
69980;BME280;57318;56.232;43.944;2023-04-28T11:31:33;99055.53;;;23.86;31.59
69980;BME280;57318;56.232;43.944;2023-04-28T11:34:04;99049.19;;;24.24;29.54
69980;BME280;57318;56.232;43.944;2023-04-28T11:36:33;99046.75;;;24.16;29.00
69980;BME280;57318;56.232;43.944;2023-04-28T11:39:03;99055.16;;;23.75;29.23
69980;BME280;57318;56.232;43.944;2023-04-28T11:41:30;99044.66;;;22.95;29.82
69980;BME280;57318;56.232;43.944;2023-04-28T11:43:56;99044.13;;;22.40;30.88
69980;BME280;57318;56.232;43.944;2023-04-28T11:46:24;99053.91;;;22.07;30.97
69980;BME280;57318;56.232;43.944;2023-04-28T11:49:04;99047.84;;;21.85;31.85
69980;BME280;57318;56.232;43.944;2023-04-28T11:51:35;99049.03;;;21.56;32.38
69980;BME280;57318;56.232;43.944;2023-04-28T11:54:02;99036.38;;;21.70;32.64
69980;BME280;57318;56.232;43.944;2023-04-28T11:56:28;99034.94;;;22.01;32.00
69980;BME280;57318;56.232;43.944;2023-04-28T11:59:08;99043.28;;;22.12;31.38
69980;BME280;57318;56.232;43.944;2023-04-28T12:01:50;99038.06;;;22.17;31.45
69980;BME280;57318;56.232;43.944;2023-04-28T12:07:12;99028.47;;;21.81;32.45
69980;BME280;57318;56.232;43.944;2023-04-28T12:09:43;99016.22;;;21.92;32.73
69980;BME280;57318;56.232;43.944;2023-04-28T12:12:29;99021.22;;;21.95;32.59
69980;BME280;57318;56.232;43.944;2023-04-28T12:15:01;99016.44;;;22.11;32.37
69980;BME280;57318;56.232;43.944;2023-04-28T12:17:36;99010.78;;;22.26;32.21
69980;BME280;57318;56.232;43.944;2023-04-28T12:20:05;99007.44;;;22.70;31.14
69980;BME280;57318;56.232;43.944;2023-04-28T12:22:48;99001.91;;;23.04;31.00
69980;BME280;57318;56.232;43.944;2023-04-28T12:25:17;98997.50;;;23.03;30.99
69980;BME280;57318;56.232;43.944;2023-04-28T12:28:05;98998.22;;;22.85;31.13
69980;BME280;57318;56.232;43.944;2023-04-28T12:30:34;98990.78;;;22.60;31.26
69980;BME280;57318;56.232;43.944;2023-04-28T12:33:03;98990.00;;;22.33;31.79
69980;BME280;57318;56.232;43.944;2023-04-28T12:35:28;98997.06;;;22.01;31.82
69980;BME280;57318;56.232;43.944;2023-04-28T12:37:55;98989.56;;;21.62;32.90
69980;BME280;57318;56.232;43.944;2023-04-28T12:40:23;98989.34;;;21.64;32.85
69980;BME280;57318;56.232;43.944;2023-04-28T12:42:49;98985.00;;;21.76;33.03
69980;BME280;57318;56.232;43.944;2023-04-28T12:45:15;98981.25;;;21.84;32.74
69980;BME280;57318;56.232;43.944;2023-04-28T12:47:44;98981.69;;;22.01;32.58
69980;BME280;57318;56.232;43.944;2023-04-28T12:50:11;98975.63;;;22.19;32.19
69980;BME280;57318;56.232;43.944;2023-04-28T12:52:36;98978.13;;;22.14;32.11
69980;BME280;57318;56.232;43.944;2023-04-28T12:55:03;98976.91;;;22.16;32.15
69980;BME280;57318;56.232;43.944;2023-04-28T12:57:31;98970.81;;;22.21;31.87
69980;BME280;57318;56.232;43.944;2023-04-28T12:59:57;98959.59;;;22.38;32.14
69980;BME280;57318;56.232;43.944;2023-04-28T13:02:23;98955.56;;;22.60;31.30
69980;BME280;57318;56.232;43.944;2023-04-28T13:04:49;98944.66;;;23.32;30.45
69980;BME280;57318;56.232;43.944;2023-04-28T13:07:16;98954.47;;;24.16;29.33
69980;BME280;57318;56.232;43.944;2023-04-28T13:09:42;98948.53;;;24.99;27.65
69980;BME280;57318;56.232;43.944;2023-04-28T13:12:09;98946.94;;;25.71;26.91
69980;BME280;57318;56.232;43.944;2023-04-28T13:14:36;98946.38;;;26.63;25.77
69980;BME280;57318;56.232;43.944;2023-04-28T13:17:02;98941.28;;;27.65;24.93
69980;BME280;57318;56.232;43.944;2023-04-28T13:19:28;98946.59;;;28.45;23.61